Time,TemperatureF,DewpointF,PressureIn,WindDirection,WindDirectionDegrees,WindSpeedMPH,WindSpeedGustMPH,Humidity,HourlyPrecipIn,Conditions,Clouds,dailyrainin,SoftwareType,DateUTC
2013-08-05 00:02:00,63.6,52.0,20.51,West,269,0.0,13.0,66,0.00,,,0.00,weatherlink.com 1.10,2013-08-05 06:02:00,
2013-08-05 00:17:00,62.5,52.0,20.52,West,268,0.0,8.0,68,0.00,,,0.00,weatherlink.com 1.10,2013-08-05 06:17:00,
2013-08-05 00:32:00,61.9,52.0,20.52,West,267,1.0,6.0,70,0.00,,,0.00,weatherlink.com 1.10,2013-08-05 06:32:00,
2013-08-05 00:47:00,61.5,52.0,20.52,West,267,0.0,4.0,71,0.00,,,0.00,weatherlink.com 1.10,2013-08-05 06:47:00,
2013-08-05 01:02:00,61.3,53.0,20.51,West,267,0.0,3.0,75,0.00,,,0.00,weatherlink.com 1.10,2013-08-05 07:02:00,
2013-08-05 01:17:00,60.4,55.0,20.49,West,267,3.0,4.0,81,0.02,,,0.02,weatherlink.com 1.10,2013-08-05 07:17:00,
2013-08-05 01:32:00,58.5,54.0,20.49,West,269,0.0,5.0,86,0.03,,,0.03,weatherlink.com 1.10,2013-08-05 07:32:00,
2013-08-05 01:47:00,57.8,54.0,20.46,West,269,0.0,3.0,88,0.04,,,0.04,weatherlink.com 1.10,2013-08-05 07:47:00,
2013-08-05 02:02:00,57.4,54.0,20.45,West,269,0.0,3.0,88,0.04,,,0.04,weatherlink.com 1.10,2013-08-05 08:02:00,
2013-08-05 02:17:00,57.4,54.0,20.44,West,266,0.0,5.0,89,0.03,,,0.05,weatherlink.com 1.10,2013-08-05 08:17:00,
2013-08-05 02:32:00,57.4,54.0,20.44,SW,236,0.0,3.0,89,0.02,,,0.05,weatherlink.com 1.10,2013-08-05 08:32:00,
2013-08-05 02:47:00,57.5,55.0,20.43,SW,236,0.0,1.0,90,0.01,,,0.05,weatherlink.com 1.10,2013-08-05 08:47:00,
2013-08-05 03:03:00,57.4,55.0,20.43,SW,236,0.0,2.0,91,0.01,,,0.05,weatherlink.com 1.10,2013-08-05 09:03:00,
2013-08-05 03:18:00,57.2,54.0,20.43,SW,236,0.0,0.0,90,0.00,,,0.05,weatherlink.com 1.10,2013-08-05 09:18:00,
2013-08-05 03:47:00,57.0,55.0,20.43,SW,236,0.0,0.0,92,0.00,,,0.05,weatherlink.com 1.10,2013-08-05 09:47:00,
2013-08-05 04:18:00,56.1,54.0,20.42,SW,236,0.0,3.0,92,0.00,,,0.05,weatherlink.com 1.10,2013-08-05 10:18:00,
2013-08-05 04:33:00,56.2,54.0,20.42,SW,236,0.0,4.0,91,0.00,,,0.05,weatherlink.com 1.10,2013-08-05 10:33:00,
2013-08-05 04:47:00,56.4,54.0,20.41,SW,236,0.0,0.0,92,0.00,,,0.05,weatherlink.com 1.10,2013-08-05 10:47:00,
2013-08-05 05:03:00,56.4,54.0,20.41,SW,236,0.0,0.0,91,0.00,,,0.05,weatherlink.com 1.10,2013-08-05 11:03:00,
2013-08-05 05:18:00,56.3,54.0,20.41,WSW,237,2.0,4.0,91,0.00,,,0.05,weatherlink.com 1.10,2013-08-05 11:18:00,
2013-08-05 05:33:00,56.2,54.0,20.41,WSW,237,0.0,0.0,91,0.00,,,0.05,weatherlink.com 1.10,2013-08-05 11:33:00,
2013-08-05 05:48:00,56.1,54.0,20.42,WSW,237,0.0,0.0,92,0.00,,,0.05,weatherlink.com 1.10,2013-08-05 11:48:00,
2013-08-05 06:17:00,55.5,53.0,20.41,SW,236,1.0,3.0,91,0.00,,,0.05,weatherlink.com 1.10,2013-08-05 12:17:00,
2013-08-05 06:33:00,55.3,53.0,20.42,SW,236,2.0,3.0,91,0.00,,,0.05,weatherlink.com 1.10,2013-08-05 12:33:00,
2013-08-05 06:48:00,55.2,53.0,20.42,SW,236,0.0,2.0,91,0.00,,,0.05,weatherlink.com 1.10,2013-08-05 12:48:00,
2013-08-05 07:03:00,55.5,53.0,20.42,SW,236,0.0,2.0,92,0.00,,,0.05,weatherlink.com 1.10,2013-08-05 13:03:00,
2013-08-05 07:19:00,56.0,54.0,20.43,SW,236,0.0,0.0,92,0.00,,,0.05,weatherlink.com 1.10,2013-08-05 13:19:00,
2013-08-05 07:33:00,56.7,55.0,20.43,SW,236,0.0,0.0,93,0.00,,,0.05,weatherlink.com 1.10,2013-08-05 13:33:00,
2013-08-05 08:04:00,58.1,55.0,20.44,SW,236,0.0,1.0,88,0.00,,,0.05,weatherlink.com 1.10,2013-08-05 14:04:00,
2013-08-05 08:19:00,58.7,55.0,20.44,SW,236,0.0,1.0,88,0.00,,,0.05,weatherlink.com 1.10,2013-08-05 14:19:00,
2013-08-05 08:49:00,61.3,56.0,20.44,WSW,237,4.0,5.0,82,0.00,,,0.05,weatherlink.com 1.10,2013-08-05 14:49:00,
2013-08-05 09:19:00,63.8,56.0,20.44,WSW,237,0.0,1.0,76,0.00,,,0.05,weatherlink.com 1.10,2013-08-05 15:19:00,
2013-08-05 09:34:00,64.9,56.0,20.43,WSW,237,0.0,4.0,73,0.00,,,0.05,weatherlink.com 1.10,2013-08-05 15:34:00,
2013-08-05 10:04:00,67.8,55.0,20.43,WSW,237,0.0,3.0,63,0.00,,,0.05,weatherlink.com 1.10,2013-08-05 16:04:00,
2013-08-05 10:34:00,69.5,52.0,20.42,WSW,238,0.0,5.0,55,0.00,,,0.05,weatherlink.com 1.10,2013-08-05 16:34:00,
2013-08-05 10:49:00,70.8,52.0,20.42,WSW,240,1.0,6.0,51,0.00,,,0.05,weatherlink.com 1.10,2013-08-05 16:49:00,
2013-08-05 11:04:00,71.9,52.0,20.42,WSW,250,5.0,7.0,49,0.00,,,0.05,weatherlink.com 1.10,2013-08-05 17:04:00,
2013-08-05 11:19:00,73.4,52.0,20.42,West,259,0.0,7.0,48,0.00,,,0.05,weatherlink.com 1.10,2013-08-05 17:19:00,
2013-08-05 11:34:00,73.5,53.0,20.42,NNW,329,0.0,8.0,49,0.00,,,0.05,weatherlink.com 1.10,2013-08-05 17:34:00,
2013-08-05 11:49:00,74.1,53.0,20.42,NW,312,4.0,6.0,48,0.00,,,0.05,weatherlink.com 1.10,2013-08-05 17:49:00,
2013-08-05 12:04:00,75.4,51.0,20.41,West,275,0.0,9.0,43,0.00,,,0.05,weatherlink.com 1.10,2013-08-05 18:04:00,
2013-08-05 12:34:00,77.2,52.0,20.41,WSW,238,1.0,10.0,42,0.00,,,0.05,weatherlink.com 1.10,2013-08-05 18:34:00,
2013-08-05 12:49:00,77.5,52.0,20.40,NW,314,0.0,10.0,41,0.00,,,0.05,weatherlink.com 1.10,2013-08-05 18:49:00,
2013-08-05 13:04:00,78.7,52.0,20.39,NNW,340,2.0,10.0,39,0.00,,,0.05,weatherlink.com 1.10,2013-08-05 19:04:00,
2013-08-05 13:20:00,78.7,51.0,20.39,NW,310,6.0,9.0,38,0.00,,,0.05,weatherlink.com 1.10,2013-08-05 19:20:00,
2013-08-05 13:35:00,79.7,50.0,20.38,WSW,256,6.0,11.0,36,0.00,,,0.05,weatherlink.com 1.10,2013-08-05 19:35:00,
2013-08-05 14:05:00,81.4,48.0,20.37,West,271,0.0,10.0,31,0.00,,,0.05,weatherlink.com 1.10,2013-08-05 20:05:00,
2013-08-05 14:35:00,82.4,51.0,20.36,WNW,283,6.0,9.0,34,0.00,,,0.05,weatherlink.com 1.10,2013-08-05 20:35:00,
2013-08-05 14:50:00,82.5,51.0,20.35,NW,314,3.0,9.0,34,0.00,,,0.05,weatherlink.com 1.10,2013-08-05 20:50:00,
2013-08-05 15:05:00,83.6,52.0,20.34,West,260,5.0,12.0,33,0.00,,,0.05,weatherlink.com 1.10,2013-08-05 21:05:00,
2013-08-05 15:20:00,82.2,51.0,20.34,NNW,336,8.0,10.0,34,0.00,,,0.05,weatherlink.com 1.10,2013-08-05 21:20:00,
2013-08-05 15:50:00,83.3,51.0,20.33,WNW,298,0.0,5.0,33,0.00,,,0.05,weatherlink.com 1.10,2013-08-05 21:50:00,
2013-08-05 16:05:00,83.9,52.0,20.32,NNW,348,1.0,18.0,33,0.00,,,0.05,weatherlink.com 1.10,2013-08-05 22:05:00,
2013-08-05 16:20:00,84.6,52.0,20.32,North,355,0.0,6.0,32,0.00,,,0.05,weatherlink.com 1.10,2013-08-05 22:20:00,
2013-08-05 17:05:00,84.5,51.0,20.31,WSW,245,5.0,9.0,31,0.00,,,0.05,weatherlink.com 1.10,2013-08-05 23:05:00,
2013-08-05 17:20:00,84.5,50.0,20.30,West,277,1.0,9.0,30,0.00,,,0.05,weatherlink.com 1.10,2013-08-05 23:20:00,
2013-08-05 17:35:00,84.9,48.0,20.29,NNW,330,5.0,9.0,28,0.00,,,0.05,weatherlink.com 1.10,2013-08-05 23:35:00,
2013-08-05 17:51:00,84.2,49.0,20.29,West,271,0.0,6.0,29,0.00,,,0.05,weatherlink.com 1.10,2013-08-05 23:51:00,
2013-08-05 18:20:00,82.1,49.0,20.29,West,259,2.0,7.0,31,0.00,,,0.05,weatherlink.com 1.10,2013-08-06 00:20:00,
2013-08-05 18:51:00,78.9,50.0,20.29,West,270,6.0,10.0,37,0.00,,,0.05,weatherlink.com 1.10,2013-08-06 00:51:00,
2013-08-05 19:07:00,78.2,50.0,20.30,WSW,248,4.0,9.0,38,0.00,,,0.05,weatherlink.com 1.10,2013-08-06 01:07:00,
2013-08-05 19:20:00,77.8,50.0,20.30,WSW,249,0.0,7.0,38,0.00,,,0.05,weatherlink.com 1.10,2013-08-06 01:20:00,
2013-08-05 19:36:00,75.3,51.0,20.33,NW,323,0.0,16.0,43,0.00,,,0.05,weatherlink.com 1.10,2013-08-06 01:36:00,
2013-08-05 19:51:00,72.8,52.0,20.34,NNW,338,1.0,9.0,48,0.00,,,0.05,weatherlink.com 1.10,2013-08-06 01:51:00,
2013-08-05 20:07:00,71.6,51.0,20.32,NNW,338,0.0,1.0,49,0.00,,,0.05,weatherlink.com 1.10,2013-08-06 02:07:00,
2013-08-05 20:21:00,70.8,51.0,20.34,SW,232,8.0,9.0,50,0.00,,,0.05,weatherlink.com 1.10,2013-08-06 02:21:00,
2013-08-05 20:36:00,69.3,52.0,20.36,WSW,238,5.0,13.0,55,0.00,,,0.05,weatherlink.com 1.10,2013-08-06 02:36:00,
2013-08-05 20:51:00,67.2,52.0,20.37,WSW,240,3.0,9.0,58,0.00,,,0.05,weatherlink.com 1.10,2013-08-06 02:51:00,
2013-08-05 21:06:00,66.7,52.0,20.38,WSW,240,0.0,3.0,59,0.00,,,0.05,weatherlink.com 1.10,2013-08-06 03:06:00,
2013-08-05 21:21:00,66.3,50.0,20.38,WSW,240,0.0,4.0,57,0.00,,,0.05,weatherlink.com 1.10,2013-08-06 03:21:00,
2013-08-05 21:51:00,65.9,50.0,20.37,SSW,213,0.0,5.0,57,0.00,,,0.05,weatherlink.com 1.10,2013-08-06 03:51:00,
2013-08-05 22:06:00,65.5,50.0,20.36,SSW,204,0.0,7.0,57,0.00,,,0.05,weatherlink.com 1.10,2013-08-06 04:06:00,
2013-08-05 22:21:00,65.5,49.0,20.37,SSW,203,0.0,2.0,56,0.00,,,0.05,weatherlink.com 1.10,2013-08-06 04:21:00,
2013-08-05 22:36:00,64.6,49.0,20.37,SSW,203,0.0,3.0,58,0.00,,,0.05,weatherlink.com 1.10,2013-08-06 04:36:00,
2013-08-05 22:51:00,64.6,49.0,20.37,SSW,203,0.0,6.0,57,0.00,,,0.05,weatherlink.com 1.10,2013-08-06 04:51:00,
2013-08-05 23:06:00,65.0,49.0,20.36,SSW,198,2.0,5.0,56,0.00,,,0.05,weatherlink.com 1.10,2013-08-06 05:06:00,
2013-08-05 23:21:00,65.3,48.0,20.36,South,184,0.0,7.0,53,0.00,,,0.05,weatherlink.com 1.10,2013-08-06 05:21:00,
2013-08-05 23:36:00,66.0,47.0,20.37,SSE,148,0.0,6.0,50,0.00,,,0.05,weatherlink.com 1.10,2013-08-06 05:36:00,
2013-08-05 23:51:00,65.2,47.0,20.37,SSE,148,0.0,0.0,52,0.00,,,0.05,weatherlink.com 1.10,2013-08-06 05:51:00,